KRIV/RIV METAR and TAF weather

Enter ICAO airport designator
Station Type Date Time Source
KRIV METAR 2019/08/25 19:58 UTC NOAA

KRIV 251958Z AUTO 32008KT 10SM CLR 35/14 A2997 RMK AO2 SLP133 T03480141


Station Type Date Time Source
KRIV Decoded METAR 2019/08/25 19:58 UTC NOAA

Station name not available
Aug 25, 2019 - 03:58 PM EDT / 2019.08.25 1958 UTC
Wind: from the NW (320 degrees) at 9 MPH (8 KT):0
Visibility: 10 mile(s):0
Sky conditions: clear
Temperature: 94.6 F (34.8 C)
Dew Point: 57.4 F (14.1 C)
Relative Humidity: 28%
Pressure (altimeter): 29.97 in. Hg (1014 hPa)
ob: KRIV 251958Z AUTO 32008KT 10SM CLR 35/14 A2997 RMK AO2 SLP133 T03480141
cycle: 20

Station Type Date Time Source
KRIV TAF 2019/08/25 20:14 UTC NOAA

TAF KRIV 252008Z 2520/2702 31009KT 9999 FEW120 SCT250 QNH2993INS TS OMTNS SE
TEMPO 2521/2602 31012G20KT
BECMG 2604/2605 VRB04KT 9999 BKN250 QNH2990INS
BECMG 2619/2620 31009KT 9999 SCT250 QNH2984INS
TEMPO 2621/2702 31012G20KT TX37/2522Z TN19/2613Z

Example: see airport list